createdAt,value
2023-03-05T00:01:22.804Z,18.03
2023-03-05T00:03:52.231Z,18.40
2023-03-05T00:06:20.383Z,19.90
2023-03-05T00:08:49.794Z,17.67
2023-03-05T00:11:17.557Z,17.10
2023-03-05T00:13:45.426Z,17.73
2023-03-05T00:16:15.492Z,16.60
2023-03-05T00:18:43.310Z,17.33
2023-03-05T00:21:20.322Z,18.60
2023-03-05T00:23:50.647Z,19.37
2023-03-05T00:26:18.759Z,19.60
2023-03-05T00:28:49.818Z,20.10
2023-03-05T00:31:18.132Z,19.23
2023-03-05T00:33:46.219Z,18.07
2023-03-05T00:36:14.023Z,18.40
2023-03-05T00:38:41.809Z,18.43
2023-03-05T00:41:11.147Z,19.03
2023-03-05T00:43:38.927Z,18.50
2023-03-05T00:46:06.819Z,19.73
2023-03-05T00:48:34.624Z,18.87
2023-03-05T00:51:02.380Z,19.97
2023-03-05T00:53:30.182Z,18.33
2023-03-05T00:55:58.002Z,16.93
2023-03-05T00:58:27.313Z,20.47
2023-03-05T01:00:59.121Z,22.77
2023-03-05T01:03:26.990Z,18.60
2023-03-05T01:05:54.792Z,21.50
2023-03-05T01:08:22.557Z,18.17
2023-03-05T01:10:50.354Z,21.20
2023-03-05T01:13:18.189Z,21.87
2023-03-05T01:15:48.678Z,21.87
2023-03-05T01:18:16.593Z,22.87
2023-03-05T01:20:44.658Z,22.90
2023-03-05T01:23:12.535Z,22.00
2023-03-05T01:25:40.785Z,21.97
2023-03-05T01:28:08.686Z,23.07
2023-03-05T01:30:36.682Z,21.07
2023-03-05T01:33:05.842Z,22.13
2023-03-05T01:35:33.804Z,22.53
2023-03-05T01:38:01.649Z,21.50
2023-03-05T01:40:31.901Z,22.70
2023-03-05T01:43:02.397Z,23.87
2023-03-05T01:45:32.676Z,23.70
2023-03-05T01:48:00.500Z,23.77
2023-03-05T01:50:29.759Z,21.90
2023-03-05T01:53:02.389Z,21.10
2023-03-05T01:55:32.801Z,20.80
2023-03-05T01:58:04.261Z,20.70
2023-03-05T02:00:36.252Z,22.57
2023-03-05T02:03:06.993Z,21.50
2023-03-05T02:05:38.364Z,21.13
2023-03-05T02:08:08.464Z,21.90
2023-03-05T02:10:38.619Z,20.47
2023-03-05T02:13:10.564Z,21.23
2023-03-05T02:15:39.385Z,22.70
2023-03-05T02:18:07.939Z,21.47
2023-03-05T02:20:47.153Z,21.23
2023-03-05T02:23:17.653Z,24.10
2023-03-05T02:25:45.610Z,23.40
2023-03-05T02:28:17.227Z,20.90
2023-03-05T02:30:45.232Z,20.90
2023-03-05T02:33:14.979Z,25.17
2023-03-05T02:35:43.601Z,21.93
2023-03-05T02:38:11.440Z,24.00
2023-03-05T02:40:40.907Z,22.60
2023-03-05T02:43:09.348Z,22.50
2023-03-05T02:45:37.400Z,23.47
2023-03-05T02:48:05.476Z,21.90
2023-03-05T02:50:33.960Z,21.73
2023-03-05T02:53:01.760Z,21.20
2023-03-05T02:55:29.516Z,22.63
2023-03-05T02:57:58.625Z,22.50
2023-03-05T03:00:26.986Z,20.60
2023-03-05T03:02:54.797Z,21.93
2023-03-05T03:05:22.964Z,22.30
2023-03-05T03:07:51.032Z,23.33
2023-03-05T03:10:18.985Z,22.50
2023-03-05T03:12:46.887Z,22.13
2023-03-05T03:15:17.933Z,22.00
2023-03-05T03:17:45.908Z,19.50
2023-03-05T03:20:17.071Z,22.23
2023-03-05T03:22:46.220Z,20.97
2023-03-05T03:25:16.050Z,23.47
2023-03-05T03:27:43.853Z,22.37
2023-03-05T03:30:13.004Z,19.33
2023-03-05T03:32:42.416Z,21.83
2023-03-05T03:35:11.438Z,23.40
2023-03-05T03:37:39.369Z,22.63
2023-03-05T03:40:08.635Z,22.90
2023-03-05T03:42:36.463Z,21.90
2023-03-05T03:45:04.791Z,20.63
2023-03-05T03:47:32.651Z,20.07
2023-03-05T03:50:02.002Z,20.53
2023-03-05T03:52:29.807Z,20.20
2023-03-05T03:55:01.526Z,21.17
2023-03-05T03:57:30.974Z,20.43
2023-03-05T03:59:58.733Z,20.00
2023-03-05T04:02:27.318Z,20.60
2023-03-05T04:04:55.154Z,18.87
2023-03-05T04:07:24.331Z,20.20
2023-03-05T04:09:52.412Z,20.03
2023-03-05T04:12:20.234Z,20.33
2023-03-05T04:14:49.116Z,19.30
2023-03-05T04:17:17.663Z,18.17
2023-03-05T04:19:45.524Z,16.93
2023-03-05T04:22:13.489Z,19.87
2023-03-05T04:24:43.000Z,18.97
2023-03-05T04:27:11.897Z,18.43
2023-03-05T04:29:39.740Z,17.43
2023-03-05T04:32:08.034Z,17.03
2023-03-05T04:34:37.696Z,18.87
2023-03-05T04:37:05.643Z,17.07
2023-03-05T04:39:33.420Z,17.67
2023-03-05T04:42:02.529Z,18.67
2023-03-05T04:44:30.315Z,18.83
2023-03-05T04:46:58.095Z,18.37
2023-03-05T04:49:25.985Z,17.70
2023-03-05T04:51:53.892Z,17.70
2023-03-05T04:54:22.356Z,18.30
2023-03-05T04:56:50.146Z,19.30
2023-03-05T04:59:19.228Z,17.77
2023-03-05T05:01:47.119Z,15.83
2023-03-05T05:04:14.987Z,18.77
2023-03-05T05:06:42.787Z,17.13
2023-03-05T05:09:10.632Z,17.93
2023-03-05T05:11:38.381Z,18.83
2023-03-05T05:14:06.179Z,16.67
2023-03-05T05:16:35.338Z,18.00
2023-03-05T05:19:03.792Z,16.80
2023-03-05T05:21:31.643Z,17.97
2023-03-05T05:23:59.393Z,16.73
2023-03-05T05:26:27.713Z,17.07
2023-03-05T05:28:55.495Z,16.97
2023-03-05T05:31:23.497Z,17.70
2023-03-05T05:33:52.626Z,16.40
2023-03-05T05:36:22.285Z,16.10
2023-03-05T05:38:50.693Z,16.00
2023-03-05T05:41:19.863Z,15.93
2023-03-05T05:43:47.859Z,16.90
2023-03-05T05:46:18.517Z,15.23
2023-03-05T05:48:46.984Z,16.43
2023-03-05T05:51:18.324Z,16.00
2023-03-05T05:53:46.339Z,15.07
2023-03-05T05:56:16.437Z,16.40
2023-03-05T05:58:47.085Z,17.30
2023-03-05T06:01:17.240Z,14.90
2023-03-05T06:03:45.316Z,14.30
2023-03-05T06:06:15.188Z,14.27
2023-03-05T06:08:44.562Z,15.17
2023-03-05T06:11:12.767Z,15.90
2023-03-05T06:13:40.820Z,12.43
2023-03-05T06:16:12.706Z,15.03
2023-03-05T06:18:40.477Z,13.13
2023-03-05T06:21:10.257Z,15.03
2023-03-05T06:23:38.052Z,14.70
2023-03-05T06:26:09.222Z,16.83
2023-03-05T06:28:37.114Z,14.77
2023-03-05T06:31:06.651Z,16.57
2023-03-05T06:33:37.027Z,13.30
2023-03-05T06:36:05.663Z,13.50
2023-03-05T06:38:34.029Z,12.47
2023-03-05T06:41:02.683Z,14.80
2023-03-05T06:43:33.324Z,13.67
2023-03-05T06:46:05.149Z,14.00
2023-03-05T06:48:33.346Z,12.30
2023-03-05T06:51:01.156Z,14.10
2023-03-05T06:53:29.368Z,14.40
2023-03-05T06:55:57.181Z,13.40
2023-03-05T06:58:26.021Z,14.10
2023-03-05T07:00:55.153Z,14.90
2023-03-05T07:03:22.922Z,13.00
2023-03-05T07:05:50.736Z,14.53
2023-03-05T07:08:18.667Z,15.43
2023-03-05T07:10:46.461Z,15.90
2023-03-05T07:13:14.232Z,15.30
2023-03-05T07:15:42.743Z,16.33
2023-03-05T07:18:11.906Z,13.57
2023-03-05T07:20:39.724Z,14.03
2023-03-05T07:23:07.549Z,14.80
2023-03-05T07:25:37.250Z,13.53
2023-03-05T07:28:06.369Z,15.00
2023-03-05T07:30:34.317Z,14.57
2023-03-05T07:33:02.643Z,14.17
2023-03-05T07:35:31.768Z,14.60
2023-03-05T07:37:59.634Z,14.27
2023-03-05T07:40:27.412Z,14.27
2023-03-05T07:42:55.243Z,14.50
2023-03-05T07:45:22.998Z,16.17
2023-03-05T07:47:52.555Z,15.77
2023-03-05T07:50:20.671Z,18.33
2023-03-05T07:52:49.796Z,14.03
2023-03-05T07:55:17.765Z,13.00
2023-03-05T07:57:45.594Z,14.40
2023-03-05T08:00:14.404Z,12.43
2023-03-05T08:02:42.326Z,13.70
2023-03-05T08:05:10.578Z,13.70
2023-03-05T08:07:38.459Z,13.87
2023-03-05T08:10:09.558Z,12.73
2023-03-05T08:12:37.382Z,13.53
2023-03-05T08:15:05.701Z,12.27
2023-03-05T08:17:33.447Z,12.20
2023-03-05T08:20:05.362Z,12.47
2023-03-05T08:22:34.839Z,14.00
2023-03-05T08:25:02.944Z,14.07
2023-03-05T08:27:32.225Z,13.07
2023-03-05T08:30:01.994Z,13.80
2023-03-05T08:32:29.907Z,14.87
2023-03-05T08:34:58.471Z,14.80
2023-03-05T08:37:26.471Z,14.47
2023-03-05T08:39:56.147Z,15.60
2023-03-05T08:42:24.485Z,15.37
2023-03-05T08:44:53.674Z,13.83
2023-03-05T08:47:21.443Z,14.80
2023-03-05T08:49:49.268Z,15.20
2023-03-05T08:52:17.001Z,17.17
2023-03-05T08:54:44.756Z,14.73
2023-03-05T08:57:12.495Z,15.53
2023-03-05T08:59:40.365Z,14.90
2023-03-05T09:02:11.357Z,13.27
2023-03-05T09:04:39.589Z,15.07
2023-03-05T09:07:07.609Z,15.37
2023-03-05T09:09:35.447Z,14.17
2023-03-05T09:12:03.478Z,14.50
2023-03-05T09:14:31.342Z,14.33
2023-03-05T09:16:59.556Z,14.23
2023-03-05T09:19:29.007Z,13.33
2023-03-05T09:21:57.294Z,13.20
2023-03-05T09:24:25.065Z,13.10
2023-03-05T09:26:52.822Z,14.00
2023-03-05T09:29:20.663Z,12.33
2023-03-05T09:31:52.812Z,13.13
2023-03-05T09:34:21.354Z,11.97
2023-03-05T09:36:50.605Z,10.70
2023-03-05T09:39:18.773Z,12.20
2023-03-05T09:42:28.860Z,10.80
2023-03-05T09:45:13.895Z,9.40
2023-03-05T09:47:54.246Z,11.90
2023-03-05T09:50:35.780Z,10.83
2023-03-05T09:53:14.150Z,10.60
2023-03-05T09:55:45.356Z,11.70
2023-03-05T09:58:15.798Z,12.30
2023-03-05T10:00:46.901Z,11.17
2023-03-05T10:03:21.053Z,12.20
2023-03-05T10:05:59.542Z,11.67
2023-03-05T10:08:34.156Z,12.27
2023-03-05T10:11:06.935Z,13.80
2023-03-05T10:13:40.901Z,14.50
2023-03-05T10:16:32.352Z,14.00
2023-03-05T10:19:07.339Z,13.97
2023-03-05T10:21:41.335Z,14.80
2023-03-05T10:24:17.941Z,16.07
2023-03-05T10:26:58.499Z,14.20
2023-03-05T10:29:51.575Z,15.87
2023-03-05T10:32:33.193Z,15.90
2023-03-05T10:35:25.461Z,14.87
2023-03-05T10:38:05.049Z,15.67
2023-03-05T10:40:39.852Z,15.73
2023-03-05T10:43:20.022Z,16.10
2023-03-05T10:45:50.681Z,16.07
2023-03-05T10:48:29.448Z,15.37
2023-03-05T10:51:01.903Z,14.57
2023-03-05T10:53:33.989Z,14.50
2023-03-05T10:56:04.870Z,15.27
2023-03-05T10:58:32.823Z,13.30
2023-03-05T11:01:05.853Z,12.93
2023-03-05T11:03:49.794Z,13.23
2023-03-05T11:06:29.777Z,13.10
2023-03-05T11:08:58.154Z,14.57
2023-03-05T11:11:28.699Z,13.60
2023-03-05T11:13:59.413Z,15.67
2023-03-05T11:16:29.457Z,14.20
2023-03-05T11:19:18.610Z,14.00
2023-03-05T11:21:48.155Z,13.73
2023-03-05T11:24:18.232Z,13.80
2023-03-05T11:26:51.960Z,13.63
2023-03-05T11:29:25.489Z,14.77
2023-03-05T11:31:54.029Z,13.30
2023-03-05T11:34:35.289Z,14.93
2023-03-05T11:37:06.416Z,15.27
2023-03-05T11:39:38.353Z,13.80
2023-03-05T11:42:11.487Z,13.07
2023-03-05T11:44:46.270Z,13.33
2023-03-05T11:47:23.903Z,18.47
2023-03-05T11:49:56.126Z,15.17
2023-03-05T11:52:27.048Z,12.37
2023-03-05T11:55:01.611Z,13.40
2023-03-05T11:57:39.726Z,13.50
2023-03-05T12:00:14.257Z,12.77
2023-03-05T12:02:42.864Z,12.07
2023-03-05T12:05:15.824Z,13.70
2023-03-05T12:07:48.378Z,12.67
2023-03-05T12:10:18.301Z,12.47
2023-03-05T12:12:53.912Z,11.67
2023-03-05T12:15:47.914Z,13.93
2023-03-05T12:18:39.081Z,13.03
2023-03-05T12:21:09.192Z,14.67
2023-03-05T12:23:48.080Z,13.33
2023-03-05T12:26:16.194Z,13.00
2023-03-05T12:28:58.993Z,12.00
2023-03-05T12:31:39.592Z,12.70
2023-03-05T12:34:44.183Z,14.20
2023-03-05T12:37:12.846Z,11.50
2023-03-05T12:39:52.513Z,13.57
2023-03-05T12:42:46.152Z,15.43
2023-03-05T12:45:45.861Z,13.30
2023-03-05T12:48:42.919Z,11.33
2023-03-05T12:51:15.288Z,10.97
2023-03-05T12:53:43.081Z,12.00
2023-03-05T12:56:20.859Z,11.97
2023-03-05T12:58:51.623Z,12.10
2023-03-05T13:01:35.157Z,12.30
2023-03-05T13:04:10.667Z,12.10
2023-03-05T13:06:40.180Z,11.00
2023-03-05T13:09:16.547Z,44.23
2023-03-05T13:11:47.620Z,122.60
2023-03-05T13:14:27.553Z,51.67
2023-03-05T13:16:57.251Z,31.37
2023-03-05T13:19:25.578Z,31.70
2023-03-05T13:22:00.581Z,20.87
2023-03-05T13:24:29.147Z,10.60
2023-03-05T13:26:57.783Z,11.47
2023-03-05T13:29:28.139Z,11.60
2023-03-05T13:31:59.641Z,23.60
2023-03-05T13:34:40.775Z,18.30
2023-03-05T13:37:18.845Z,12.40
2023-03-05T13:39:51.007Z,12.20
2023-03-05T13:42:20.940Z,22.90
2023-03-05T13:44:55.667Z,13.67
2023-03-05T13:47:28.376Z,11.10
2023-03-05T13:50:00.420Z,12.03
2023-03-05T13:52:30.755Z,15.23
2023-03-05T13:54:59.574Z,12.60
2023-03-05T13:57:39.229Z,14.43
2023-03-05T14:00:25.019Z,8.77
2023-03-05T14:02:57.556Z,8.83
2023-03-05T14:05:26.636Z,8.80
2023-03-05T14:07:54.793Z,8.90
2023-03-05T14:10:31.337Z,8.93
2023-03-05T14:13:00.499Z,9.20
2023-03-05T14:15:30.910Z,8.60
2023-03-05T14:18:20.634Z,8.87
2023-03-05T14:21:03.929Z,9.70
2023-03-05T14:23:37.739Z,10.07
2023-03-05T14:26:29.467Z,8.87
2023-03-05T14:29:00.254Z,9.03
2023-03-05T14:31:30.629Z,8.10
2023-03-05T14:34:05.228Z,6.80
2023-03-05T14:36:34.559Z,6.53
2023-03-05T14:39:02.443Z,7.50
2023-03-05T14:41:37.911Z,6.93
2023-03-05T14:44:13.309Z,6.87
2023-03-05T14:46:41.563Z,7.87
2023-03-05T14:49:10.953Z,8.97
2023-03-05T14:51:41.826Z,7.20
2023-03-05T14:54:20.593Z,7.80
2023-03-05T14:56:49.593Z,7.60
2023-03-05T14:59:18.098Z,7.70
2023-03-05T15:01:46.054Z,7.27
2023-03-05T15:04:18.967Z,6.87
2023-03-05T15:06:50.576Z,7.60
2023-03-05T15:09:20.930Z,7.60
2023-03-05T15:11:50.107Z,8.03
2023-03-05T15:14:17.981Z,8.63
2023-03-05T15:16:47.772Z,8.10
2023-03-05T15:19:16.948Z,8.00
2023-03-05T15:21:44.809Z,7.90
2023-03-05T15:24:14.711Z,8.90
2023-03-05T15:26:42.501Z,9.57
2023-03-05T15:29:10.259Z,9.00
2023-03-05T15:31:40.347Z,10.20
2023-03-05T15:34:08.225Z,9.97
2023-03-05T15:36:37.338Z,10.50
2023-03-05T15:39:05.122Z,10.80
2023-03-05T15:41:32.907Z,10.50
2023-03-05T15:44:00.653Z,10.33
2023-03-05T15:46:28.590Z,10.83
2023-03-05T15:48:56.405Z,9.67
2023-03-05T15:51:24.166Z,9.07
2023-03-05T15:53:54.414Z,9.50
2023-03-05T15:56:22.209Z,10.47
2023-03-05T15:58:50.149Z,11.30
2023-03-05T16:01:19.302Z,12.00
2023-03-05T16:03:47.370Z,13.60
2023-03-05T16:06:16.518Z,11.30
2023-03-05T16:08:45.237Z,11.10
2023-03-05T16:11:14.617Z,13.33
2023-03-05T16:13:42.985Z,12.27
2023-03-05T16:16:11.480Z,13.50
2023-03-05T16:18:43.484Z,13.03
2023-03-05T16:21:12.026Z,13.93
2023-03-05T16:23:39.796Z,14.30
2023-03-05T16:26:10.236Z,12.60
2023-03-05T16:28:39.417Z,12.03
2023-03-05T16:31:07.329Z,13.70
2023-03-05T16:33:35.207Z,13.20
2023-03-05T16:36:24.633Z,13.30
2023-03-05T16:38:54.315Z,12.93
2023-03-05T16:41:24.401Z,11.93
2023-03-05T16:43:56.267Z,12.00
2023-03-05T16:46:25.365Z,13.40
2023-03-05T16:48:53.895Z,13.53
2023-03-05T16:51:22.546Z,13.47
2023-03-05T16:53:50.680Z,12.17
2023-03-05T16:56:19.162Z,12.13
2023-03-05T16:58:47.109Z,12.03
2023-03-05T17:01:18.860Z,12.60
2023-03-05T17:03:46.734Z,13.63
2023-03-05T17:06:17.034Z,12.83
2023-03-05T17:08:46.039Z,12.53
2023-03-05T17:11:14.550Z,13.13
2023-03-05T17:13:42.785Z,10.47
2023-03-05T17:16:12.673Z,11.87
2023-03-05T17:18:41.863Z,13.30
2023-03-05T17:21:10.462Z,12.00
2023-03-05T17:23:39.911Z,12.90
2023-03-05T17:26:08.814Z,13.40
2023-03-05T17:28:37.014Z,13.20
2023-03-05T17:31:04.915Z,14.13
2023-03-05T17:33:33.173Z,13.20
2023-03-05T17:36:03.140Z,12.73
2023-03-05T17:38:31.641Z,13.20
2023-03-05T17:40:59.500Z,13.20
2023-03-05T17:43:27.417Z,13.23
2023-03-05T17:45:59.520Z,13.33
2023-03-05T17:48:27.564Z,13.40
2023-03-05T17:50:55.910Z,13.23
2023-03-05T17:53:25.086Z,12.60
2023-03-05T17:55:53.200Z,13.70
2023-03-05T17:58:21.015Z,13.30
2023-03-05T18:00:48.902Z,13.47
2023-03-05T18:03:16.750Z,12.10
2023-03-05T18:05:44.666Z,13.07
2023-03-05T18:08:12.958Z,12.27
2023-03-05T18:10:42.121Z,12.93
2023-03-05T18:13:09.953Z,15.13
2023-03-05T18:15:41.702Z,15.90
2023-03-05T18:18:09.525Z,13.70
2023-03-05T18:20:38.144Z,14.43
2023-03-05T18:23:06.960Z,14.77
2023-03-05T18:25:35.460Z,17.57
2023-03-05T18:28:06.852Z,16.50
2023-03-05T18:30:35.159Z,15.50
2023-03-05T18:33:03.348Z,15.77
2023-03-05T18:35:32.140Z,16.27
2023-03-05T18:38:01.006Z,16.80
2023-03-05T18:40:32.434Z,15.50
2023-03-05T18:43:01.493Z,15.70
2023-03-05T18:45:32.338Z,15.50
2023-03-05T18:48:00.164Z,13.73
2023-03-05T18:50:29.704Z,13.60
2023-03-05T18:52:57.540Z,14.90
2023-03-05T18:55:27.695Z,15.13
2023-03-05T18:57:56.114Z,16.20
2023-03-05T19:00:26.305Z,14.07
2023-03-05T19:02:56.508Z,15.57
2023-03-05T19:05:26.004Z,16.40
2023-03-05T19:07:54.864Z,15.50
2023-03-05T19:10:23.586Z,16.70
2023-03-05T19:12:57.586Z,15.67
2023-03-05T19:15:25.428Z,15.40
2023-03-05T19:17:54.780Z,13.83
2023-03-05T19:20:23.958Z,15.40
2023-03-05T19:22:51.785Z,15.53
2023-03-05T19:25:19.736Z,15.77
2023-03-05T19:27:47.549Z,15.00
2023-03-05T19:30:16.413Z,15.43
2023-03-05T19:32:47.036Z,15.43
2023-03-05T19:35:16.775Z,15.73
2023-03-05T19:37:46.112Z,15.03
2023-03-05T19:40:14.967Z,15.07
2023-03-05T19:42:42.779Z,15.67
2023-03-05T19:45:11.372Z,16.33
2023-03-05T19:47:39.258Z,15.30
2023-03-05T19:50:08.193Z,14.63
2023-03-05T19:52:35.973Z,13.80
2023-03-05T19:55:05.731Z,15.03
2023-03-05T19:57:33.660Z,14.03
2023-03-05T20:00:01.554Z,13.80
2023-03-05T20:02:29.731Z,13.90
2023-03-05T20:04:57.570Z,15.47
2023-03-05T20:07:25.381Z,13.30
2023-03-05T20:09:55.388Z,16.07
2023-03-05T20:12:24.758Z,14.70
2023-03-05T20:14:52.517Z,14.50
2023-03-05T20:17:20.590Z,15.83
2023-03-05T20:19:48.374Z,14.60
2023-03-05T20:22:16.190Z,16.00
2023-03-05T20:24:44.029Z,13.83
2023-03-05T20:27:11.834Z,13.90
2023-03-05T20:29:40.958Z,14.83
2023-03-05T20:32:08.840Z,13.73
2023-03-05T20:34:36.646Z,14.90
2023-03-05T20:37:04.999Z,13.77
2023-03-05T20:39:32.876Z,13.20
2023-03-05T20:42:00.910Z,13.37
2023-03-05T20:44:28.694Z,13.93
2023-03-05T20:47:12.474Z,14.50
2023-03-05T20:49:40.298Z,14.27
2023-03-05T20:52:08.090Z,13.20
2023-03-05T20:54:36.302Z,11.83
2023-03-05T20:57:04.109Z,10.83
2023-03-05T20:59:31.899Z,9.23
2023-03-05T21:02:01.072Z,12.67
2023-03-05T21:04:28.946Z,15.97
2023-03-05T21:06:56.733Z,15.67
2023-03-05T21:09:24.566Z,15.10
2023-03-05T21:11:52.384Z,14.13
2023-03-05T21:14:20.169Z,15.60
2023-03-05T21:16:47.975Z,16.60
2023-03-05T21:19:17.257Z,19.10
2023-03-05T21:21:45.756Z,18.00
2023-03-05T21:24:13.931Z,17.40
2023-03-05T21:26:41.731Z,16.53
2023-03-05T21:29:09.504Z,16.40
2023-03-05T21:31:37.771Z,15.73
2023-03-05T21:34:05.572Z,13.43
2023-03-05T21:36:35.050Z,13.10
2023-03-05T21:39:02.853Z,12.07
2023-03-05T21:41:31.085Z,12.20
2023-03-05T21:44:03.878Z,12.53
2023-03-05T21:46:31.719Z,13.87
2023-03-05T21:48:59.509Z,15.00
2023-03-05T21:51:38.296Z,14.23
2023-03-05T21:54:08.909Z,14.13
2023-03-05T21:56:36.808Z,13.70
2023-03-05T21:59:04.631Z,12.53
2023-03-05T22:01:32.503Z,10.30
2023-03-05T22:04:00.495Z,11.47
2023-03-05T22:06:28.394Z,12.90
2023-03-05T22:08:56.156Z,11.40
2023-03-05T22:11:25.272Z,11.50
2023-03-05T22:13:53.095Z,10.17
2023-03-05T22:16:25.676Z,11.83
2023-03-05T22:18:54.407Z,11.30
2023-03-05T22:21:25.691Z,12.37
2023-03-05T22:23:54.260Z,10.90
2023-03-05T22:26:22.089Z,10.93
2023-03-05T22:28:51.304Z,10.70
2023-03-05T22:31:22.758Z,10.20
2023-03-05T22:33:50.694Z,9.87
2023-03-05T22:36:19.308Z,9.33
2023-03-05T22:38:47.498Z,8.90
2023-03-05T22:41:19.585Z,8.13
2023-03-05T22:43:48.251Z,8.60
2023-03-05T22:46:19.374Z,8.67
2023-03-05T22:48:47.624Z,8.20
2023-03-05T22:51:16.893Z,9.47
2023-03-05T22:53:45.037Z,9.90
2023-03-05T22:56:15.061Z,10.60
2023-03-05T22:58:43.159Z,8.80
2023-03-05T23:01:14.543Z,9.97
2023-03-05T23:03:44.168Z,9.90
2023-03-05T23:06:12.001Z,9.00
2023-03-05T23:08:39.814Z,8.23
2023-03-05T23:11:12.258Z,7.57
2023-03-05T23:13:40.550Z,7.33
2023-03-05T23:16:09.372Z,7.87
2023-03-05T23:18:37.330Z,8.00
2023-03-05T23:21:06.745Z,8.20
2023-03-05T23:23:34.627Z,6.70
2023-03-05T23:26:02.833Z,7.70
2023-03-05T23:28:30.697Z,7.43
2023-03-05T23:30:59.004Z,6.40
2023-03-05T23:33:27.910Z,5.00
2023-03-05T23:35:58.206Z,5.30
2023-03-05T23:38:29.257Z,5.17
2023-03-05T23:41:01.051Z,5.97
2023-03-05T23:43:29.519Z,5.40
2023-03-05T23:45:58.157Z,5.20
2023-03-05T23:48:27.393Z,5.80
2023-03-05T23:50:55.740Z,6.40
2023-03-05T23:53:25.857Z,6.00
2023-03-05T23:55:55.335Z,6.10
2023-03-05T23:58:23.829Z,6.03
